Time;durP1;ratioP1;P1;durP2;ratioP2;P2;SDS_P1;SDS_P2;PMS_P1;PMS_P2;Temp;Humidity;BMP_temperature;BMP_pressure;BME280_temperature;BME280_humidity;BME280_pressure;Samples;Min_cycle;Max_cycle;Signal;HPM_P1;HPM_P2
2021/05/02 00:02:08;;;;;;;15.18;9.52;;;;;;;7.81;89.78;95215.72;5068917;28;20083;-69
2021/05/02 00:04:35;;;;;;;14.73;8.98;;;;;;;7.78;90.11;95215.59;5070398;28;20041;-69
2021/05/02 00:07:02;;;;;;;14.02;8.88;;;;;;;7.78;89.42;95221.81;5069457;28;20056;-68
2021/05/02 00:09:29;;;;;;;14.27;9.65;;;;;;;7.73;89.51;95215.78;5070183;28;20040;-68
2021/05/02 00:11:55;;;;;;;15.27;9.15;;;;;;;7.68;90.22;95221.38;5069507;28;20052;-69
2021/05/02 00:14:21;;;;;;;14.88;9.55;;;;;;;7.62;90.19;95226.16;5069686;28;20056;-69
2021/05/02 00:16:47;;;;;;;10.88;8.00;;;;;;;7.66;90.44;95235.25;5069693;28;20132;-69
2021/05/02 00:19:13;;;;;;;13.23;8.82;;;;;;;7.65;90.55;95232.88;5069221;28;20048;-69
2021/05/02 00:21:39;;;;;;;11.05;7.72;;;;;;;7.58;89.67;95239.59;5080543;28;20043;-69
2021/05/02 00:24:09;;;;;;;12.77;8.45;;;;;;;7.57;90.25;95240.72;5089240;28;20048;-68
2021/05/02 00:26:35;;;;;;;11.68;7.97;;;;;;;7.61;90.23;95242.75;5085508;28;20056;-69
2021/05/02 00:29:02;;;;;;;11.10;7.65;;;;;;;7.51;90.31;95255.53;5072305;28;20048;-69
2021/05/02 00:31:28;;;;;;;12.23;7.90;;;;;;;7.58;90.53;95252.34;5074308;28;20114;-69
2021/05/02 00:33:54;;;;;;;12.13;7.95;;;;;;;7.55;90.08;95261.91;5073094;28;20044;-69
2021/05/02 00:36:22;;;;;;;13.70;8.07;;;;;;;7.53;89.52;95269.56;5080830;28;20693;-69
2021/05/02 00:38:48;;;;;;;13.23;7.80;;;;;;;7.45;89.35;95277.72;5094323;28;20036;-69
2021/05/02 00:41:27;;;;;;;11.20;7.70;;;;;;;7.41;89.80;95272.16;5092097;28;20051;-69
2021/05/02 00:43:56;;;;;;;11.90;7.85;;;;;;;7.33;89.81;95281.91;5093398;28;20067;-70
2021/05/02 00:46:28;;;;;;;13.20;8.30;;;;;;;7.29;89.74;95285.56;5092867;28;20491;-69
2021/05/02 00:49:02;;;;;;;12.05;8.10;;;;;;;7.26;89.98;95292.44;5094272;28;20051;-69
2021/05/02 00:51:28;;;;;;;11.65;8.30;;;;;;;7.25;90.41;95295.47;5092493;28;20375;-69
2021/05/02 00:54:10;;;;;;;13.90;8.63;;;;;;;7.25;90.46;95301.66;5094297;28;20448;-69
2021/05/02 00:56:46;;;;;;;13.00;8.90;;;;;;;7.28;90.41;95316.47;5085968;28;20056;-69
2021/05/02 00:59:20;;;;;;;11.65;8.30;;;;;;;7.21;90.36;95313.47;5072749;28;20052;-70
2021/05/02 01:01:52;;;;;;;12.45;8.35;;;;;;;7.26;90.29;95318.72;5073352;28;20415;-69
2021/05/02 01:04:21;;;;;;;12.77;8.87;;;;;;;7.19;90.27;95329.25;5072213;28;20498;-69
2021/05/02 01:06:49;;;;;;;13.02;8.63;;;;;;;7.22;90.14;95334.03;5073633;28;20059;-69
2021/05/02 01:09:16;;;;;;;13.40;9.18;;;;;;;7.24;90.39;95329.06;5071546;28;20050;-69
2021/05/02 01:11:47;;;;;;;12.95;8.75;;;;;;;7.19;89.70;95346.28;5073529;28;20044;-69
2021/05/02 01:14:19;;;;;;;13.27;8.88;;;;;;;7.11;89.86;95343.59;5072006;28;20095;-69
2021/05/02 01:16:47;;;;;;;11.77;8.25;;;;;;;7.13;90.25;95346.78;5073185;28;20044;-69
2021/05/02 01:19:13;;;;;;;14.65;9.70;;;;;;;7.07;90.03;95360.47;5072307;28;20102;-69
2021/05/02 01:21:42;;;;;;;12.15;7.95;;;;;;;7.05;90.04;95351.88;5083216;28;20048;-69
2021/05/02 01:24:10;;;;;;;13.60;8.32;;;;;;;7.02;89.90;95363.34;5088351;28;20498;-69
2021/05/02 01:26:40;;;;;;;12.02;8.75;;;;;;;7.05;89.83;95368.13;5071981;28;20490;-69
2021/05/02 01:29:06;;;;;;;13.52;8.50;;;;;;;6.93;89.31;95375.28;5074213;28;20072;-69
2021/05/02 01:31:33;;;;;;;13.43;9.15;;;;;;;6.88;89.60;95372.72;5092226;28;20039;-69
2021/05/02 01:33:59;;;;;;;11.90;8.40;;;;;;;6.80;89.44;95382.44;5093313;28;20107;-68
2021/05/02 01:36:25;;;;;;;13.40;9.02;;;;;;;6.77;89.47;95381.16;5091703;28;20047;-69
2021/05/02 01:38:53;;;;;;;14.52;9.40;;;;;;;6.76;89.79;95384.97;5091749;28;20059;-69
2021/05/02 01:41:20;;;;;;;13.10;9.18;;;;;;;6.75;90.19;95390.72;5091971;28;20110;-69
2021/05/02 01:43:46;;;;;;;14.65;10.07;;;;;;;6.80;90.20;95393.25;5092541;28;20074;-69
2021/05/02 01:46:17;;;;;;;12.75;9.77;;;;;;;6.78;89.72;95395.47;5074388;28;20129;-69
2021/05/02 01:48:45;;;;;;;13.35;9.00;;;;;;;6.74;89.60;95406.16;5083858;28;20059;-68
2021/05/02 01:51:14;;;;;;;12.93;8.68;;;;;;;6.71;89.43;95412.19;5092495;28;20410;-69
2021/05/02 01:53:40;;;;;;;12.65;8.88;;;;;;;6.68;89.66;95417.41;5091700;28;20101;-69
2021/05/02 01:56:06;;;;;;;13.65;9.15;;;;;;;6.65;89.54;95418.06;5092401;28;20094;-69
2021/05/02 01:58:35;;;;;;;11.63;8.40;;;;;;;6.54;89.75;95423.78;5091536;28;20036;-69
2021/05/02 02:01:04;;;;;;;13.15;9.30;;;;;;;6.52;90.02;95431.41;5074199;28;20414;-69
2021/05/02 02:03:30;;;;;;;14.63;9.07;;;;;;;6.51;90.51;95435.22;5071941;28;20048;-69
2021/05/02 02:05:58;;;;;;;13.50;9.25;;;;;;;6.51;90.59;95443.31;5071666;28;20076;-69
2021/05/02 02:08:24;;;;;;;12.57;9.15;;;;;;;6.46;90.68;95443.47;5071485;28;20044;-69
2021/05/02 02:10:52;;;;;;;14.88;9.50;;;;;;;6.50;90.59;95455.25;5071286;28;20045;-69
2021/05/02 02:13:18;;;;;;;13.45;9.23;;;;;;;6.49;90.32;95456.38;5071784;28;20111;-69
2021/05/02 02:15:47;;;;;;;12.20;8.57;;;;;;;6.44;90.31;95451.09;5071064;28;20589;-69
2021/05/02 02:18:15;;;;;;;13.23;9.07;;;;;;;6.47;90.10;95464.00;5071691;28;20049;-69
2021/05/02 02:20:43;;;;;;;13.43;9.15;;;;;;;6.44;89.85;95467.34;5073522;28;20044;-69
2021/05/02 02:23:16;;;;;;;12.45;8.40;;;;;;;6.46;89.90;95470.50;5091467;28;20522;-69
2021/05/02 02:25:44;;;;;;;10.40;7.10;;;;;;;6.43;89.29;95481.97;5078522;28;20119;-69
2021/05/02 02:28:12;;;;;;;13.75;7.90;;;;;;;6.45;90.20;95479.75;5070545;28;20112;-68
2021/05/02 02:30:41;;;;;;;9.77;7.40;;;;;;;6.47;89.49;95488.34;5071643;28;20048;-69
2021/05/02 02:33:08;;;;;;;10.00;6.90;;;;;;;6.38;89.32;95490.22;5070398;28;20052;-69
2021/05/02 02:35:39;;;;;;;11.23;7.03;;;;;;;6.35;89.34;95496.25;5071885;28;20052;-69
2021/05/02 02:38:08;;;;;;;9.95;6.47;;;;;;;6.26;89.18;95498.94;5070139;28;20446;-69
2021/05/02 02:40:37;;;;;;;9.48;6.90;;;;;;;6.20;89.24;95502.06;5071829;28;20040;-69
2021/05/02 02:43:04;;;;;;;8.07;5.68;;;;;;;6.21;89.65;95511.75;5070217;28;20662;-69
2021/05/02 02:45:33;;;;;;;6.90;5.22;;;;;;;6.18;89.06;95507.78;5071180;28;20055;-69
2021/05/02 02:48:02;;;;;;;8.30;5.43;;;;;;;6.11;89.03;95518.25;5070796;28;20493;-68
2021/05/02 02:50:30;;;;;;;6.65;5.07;;;;;;;6.09;89.01;95522.34;5070902;28;20041;-69
2021/05/02 02:53:03;;;;;;;6.22;4.80;;;;;;;6.06;89.01;95528.38;5091254;28;20518;-69
2021/05/02 02:55:30;;;;;;;6.53;4.65;;;;;;;6.01;89.20;95532.81;5079115;28;20040;-69
2021/05/02 02:57:59;;;;;;;5.13;4.03;;;;;;;6.01;89.13;95532.81;5071600;28;20056;-69
2021/05/02 03:00:27;;;;;;;7.50;4.95;;;;;;;6.04;89.18;95534.09;5069695;28;20032;-69
2021/05/02 03:03:01;;;;;;;5.22;3.88;;;;;;;6.06;88.92;95541.91;5071173;28;20052;-69
2021/05/02 03:05:29;;;;;;;4.65;3.38;;;;;;;6.01;88.45;95540.13;5070305;28;20036;-68
2021/05/02 03:07:58;;;;;;;4.43;3.05;;;;;;;6.07;88.59;95551.59;5070772;28;20056;-69
2021/05/02 03:10:24;;;;;;;3.75;2.45;;;;;;;6.08;88.20;95555.91;5070049;28;20051;-69
2021/05/02 03:12:51;;;;;;;5.55;2.92;;;;;;;6.06;88.34;95558.13;5070380;28;20052;-68
2021/05/02 03:15:17;;;;;;;3.42;2.67;;;;;;;6.11;88.45;95568.78;5070284;28;20506;-69
2021/05/02 03:17:47;;;;;;;3.13;2.30;;;;;;;6.06;87.84;95569.72;5069718;28;20083;-69
2021/05/02 03:20:14;;;;;;;3.08;2.15;;;;;;;6.09;87.89;95576.41;5070675;28;20110;-69
2021/05/02 03:22:45;;;;;;;3.65;2.20;;;;;;;6.05;87.75;95580.81;5088980;28;20463;-69
2021/05/02 03:25:13;;;;;;;2.80;2.00;;;;;;;5.97;87.68;95577.75;5081924;28;20044;-69
2021/05/02 03:27:45;;;;;;;3.28;2.30;;;;;;;5.97;88.26;95571.56;5069839;28;20044;-69
2021/05/02 03:30:14;;;;;;;3.97;2.60;;;;;;;5.98;88.22;95573.94;5069961;28;20044;-68
2021/05/02 03:32:46;;;;;;;3.95;3.13;;;;;;;6.01;88.50;95584.16;5070406;28;20051;-68
2021/05/02 03:35:14;;;;;;;4.03;3.10;;;;;;;6.01;88.57;95584.16;5069646;28;20118;-68
2021/05/02 03:37:43;;;;;;;5.18;2.80;;;;;;;6.00;88.36;95590.66;5070580;28;20052;-68
2021/05/02 03:40:11;;;;;;;3.63;2.70;;;;;;;5.91;88.73;95592.50;5069158;28;20045;-69
2021/05/02 03:42:37;;;;;;;5.18;3.33;;;;;;;5.88;89.38;95595.78;5070930;28;20094;-70
2021/05/02 03:45:03;;;;;;;5.88;3.50;;;;;;;5.81;89.44;95590.00;5069054;28;20040;-69
2021/05/02 03:47:29;;;;;;;5.63;3.70;;;;;;;5.82;89.59;95599.72;5070641;28;20055;-68
2021/05/02 03:49:55;;;;;;;4.75;3.33;;;;;;;5.78;89.92;95606.81;5069756;28;20115;-69
2021/05/02 03:52:20;;;;;;;4.85;3.53;;;;;;;5.74;89.97;95611.22;5085985;28;20044;-68
2021/05/02 03:54:51;;;;;;;4.05;2.92;;;;;;;5.79;89.70;95613.81;5084742;28;20048;-69
2021/05/02 03:57:18;;;;;;;3.67;2.65;;;;;;;5.72;89.45;95619.66;5069480;28;20044;-68
2021/05/02 03:59:44;;;;;;;5.00;3.33;;;;;;;5.66;89.60;95614.66;5070229;28;20041;-68
2021/05/02 04:02:10;;;;;;;5.00;3.05;;;;;;;5.60;89.86;95626.69;5068368;28;20056;-68
2021/05/02 04:04:36;;;;;;;4.22;2.83;;;;;;;5.58;89.59;95634.28;5070387;28;20068;-69
2021/05/02 04:07:05;;;;;;;3.40;2.60;;;;;;;5.58;89.87;95634.28;5068653;28;20470;-68
2021/05/02 04:09:33;;;;;;;3.92;2.60;;;;;;;5.60;89.87;95642.91;5070434;28;20491;-69
2021/05/02 04:11:59;;;;;;;3.65;2.45;;;;;;;5.55;89.77;95651.13;5069328;28;20057;-68
2021/05/02 04:14:26;;;;;;;4.15;2.63;;;;;;;5.56;90.09;95652.69;5069643;28;20049;-68
2021/05/02 04:16:55;;;;;;;4.28;2.70;;;;;;;5.53;89.86;95669.50;5069784;28;20041;-68
2021/05/02 04:19:21;;;;;;;3.75;2.78;;;;;;;5.58;90.01;95677.50;5069031;28;20444;-68
2021/05/02 04:21:47;;;;;;;5.40;3.03;;;;;;;5.52;89.87;95671.41;5081765;28;20040;-68
2021/05/02 04:24:14;;;;;;;5.25;3.22;;;;;;;5.44;90.07;95672.94;5088074;28;20117;-68
2021/05/02 04:26:42;;;;;;;6.28;3.47;;;;;;;5.50;89.99;95687.13;5070185;28;20045;-68
2021/05/02 04:29:08;;;;;;;6.68;4.05;;;;;;;5.43;90.03;95682.13;5068878;28;20041;-68
2021/05/02 04:31:34;;;;;;;6.57;4.25;;;;;;;5.46;90.18;95697.72;5070477;28;20049;-68
2021/05/02 04:34:00;;;;;;;6.07;4.00;;;;;;;5.43;90.22;95700.25;5069181;28;20052;-68
2021/05/02 04:36:26;;;;;;;7.43;4.25;;;;;;;5.43;89.98;95708.34;5069795;28;20036;-68
2021/05/02 04:38:52;;;;;;;6.53;4.32;;;;;;;5.36;89.95;95706.00;5069338;28;20056;-69
2021/05/02 04:41:18;;;;;;;7.15;4.40;;;;;;;5.41;90.14;95705.91;5069149;28;20053;-68
2021/05/02 04:43:44;;;;;;;6.95;4.28;;;;;;;5.37;89.97;95710.31;5069639;28;20443;-69
2021/05/02 04:46:11;;;;;;;7.95;4.95;;;;;;;5.31;90.21;95714.22;5068807;28;20431;-68
2021/05/02 04:48:39;;;;;;;6.78;4.78;;;;;;;5.34;90.49;95710.94;5069807;28;20056;-69
2021/05/02 04:51:05;;;;;;;7.70;4.93;;;;;;;5.32;90.27;95723.91;5074236;28;20052;-69
2021/05/02 04:53:31;;;;;;;7.78;4.95;;;;;;;5.33;90.54;95740.94;5090454;28;20258;-68
2021/05/02 04:55:57;;;;;;;8.43;5.32;;;;;;;5.31;90.37;95741.22;5073722;28;20044;-68
2021/05/02 04:58:23;;;;;;;8.70;5.65;;;;;;;5.30;90.36;95742.31;5069546;28;20036;-68
2021/05/02 05:00:49;;;;;;;9.95;5.75;;;;;;;5.31;90.31;95743.91;5068903;28;20075;-68
2021/05/02 05:03:16;;;;;;;10.27;6.32;;;;;;;5.27;90.37;95758.31;5069295;28;20048;-68
2021/05/02 05:05:43;;;;;;;10.10;6.80;;;;;;;5.30;90.14;95763.91;5069020;28;20171;-68
2021/05/02 05:08:09;;;;;;;10.60;6.50;;;;;;;5.28;89.98;95760.72;5068854;28;20128;-70
2021/05/02 05:10:35;;;;;;;12.45;7.72;;;;;;;5.21;90.11;95763.78;5069330;28;20045;-69
2021/05/02 05:13:02;;;;;;;11.73;7.82;;;;;;;5.19;90.25;95778.69;5071124;28;20453;-69
2021/05/02 05:15:28;;;;;;;12.98;8.50;;;;;;;5.16;90.23;95779.28;5073294;28;20048;-70
2021/05/02 05:17:54;;;;;;;13.52;8.32;;;;;;;5.16;90.51;95788.19;5072194;28;20051;-69
2021/05/02 05:20:20;;;;;;;14.73;8.70;;;;;;;5.15;90.41;95796.56;5072830;28;20056;-69
2021/05/02 05:22:47;;;;;;;14.38;8.75;;;;;;;5.15;90.55;95807.38;5092144;28;20051;-70
2021/05/02 05:25:14;;;;;;;13.70;9.23;;;;;;;5.03;90.56;95810.56;5084124;28;20453;-69
2021/05/02 05:27:40;;;;;;;14.73;9.40;;;;;;;5.04;91.08;95806.75;5072838;28;20049;-69
2021/05/02 05:30:09;;;;;;;15.35;9.00;;;;;;;5.02;90.94;95821.66;5072122;28;20045;-71
2021/05/02 05:32:35;;;;;;;13.00;8.25;;;;;;;4.99;90.80;95817.63;5072715;28;20036;-69
2021/05/02 05:35:01;;;;;;;11.63;7.93;;;;;;;4.96;90.27;95824.44;5072178;28;20620;-68
2021/05/02 05:37:26;;;;;;;15.57;9.18;;;;;;;5.05;90.75;95831.84;5072532;28;20543;-69
2021/05/02 05:39:53;;;;;;;13.63;8.40;;;;;;;5.11;90.25;95836.03;5071913;28;20063;-69
2021/05/02 05:42:19;;;;;;;11.70;7.57;;;;;;;5.09;90.22;95838.25;5072649;28;20044;-69
2021/05/02 05:44:45;;;;;;;12.75;8.02;;;;;;;5.02;89.62;95841.34;5071553;28;20040;-68
2021/05/02 05:47:12;;;;;;;11.07;7.20;;;;;;;5.04;89.83;95846.44;5072523;28;20051;-69
2021/05/02 05:49:39;;;;;;;11.60;8.10;;;;;;;4.92;89.70;95844.19;5071444;28;20040;-69
2021/05/02 05:52:06;;;;;;;11.57;7.75;;;;;;;4.88;89.90;95849.38;5086311;28;20040;-69
2021/05/02 05:54:32;;;;;;;11.50;8.07;;;;;;;4.84;89.84;95852.94;5088743;28;20075;-69
2021/05/02 05:56:58;;;;;;;13.13;8.63;;;;;;;4.84;90.21;95852.94;5072091;28;20078;-68
2021/05/02 05:59:24;;;;;;;11.93;7.82;;;;;;;4.74;90.09;95855.78;5071473;28;20036;-69
2021/05/02 06:01:50;;;;;;;11.57;7.72;;;;;;;4.77;90.26;95857.91;5071672;28;20048;-69
2021/05/02 06:04:16;;;;;;;10.32;7.07;;;;;;;4.79;90.18;95867.31;5071931;28;20102;-69
2021/05/02 06:06:42;;;;;;;9.90;6.25;;;;;;;4.75;90.23;95866.31;5071340;28;20052;-69
2021/05/02 06:09:09;;;;;;;9.27;6.32;;;;;;;4.77;89.97;95866.00;5071831;28;20155;-69
2021/05/02 06:11:35;;;;;;;8.85;6.32;;;;;;;4.68;89.82;95873.94;5071269;28;20045;-69
2021/05/02 06:14:03;;;;;;;9.85;6.85;;;;;;;4.64;90.04;95873.72;5071927;28;20545;-70
2021/05/02 06:16:29;;;;;;;10.73;7.38;;;;;;;4.71;90.20;95876.88;5071199;28;20052;-69
2021/05/02 06:18:57;;;;;;;9.98;6.25;;;;;;;4.77;90.26;95885.69;5072129;28;20159;-69
2021/05/02 06:21:24;;;;;;;10.88;7.05;;;;;;;4.88;90.43;95881.75;5079238;28;20051;-69
2021/05/02 06:23:51;;;;;;;12.30;6.97;;;;;;;5.02;90.51;95887.22;5091080;28;20044;-69
2021/05/02 06:26:19;;;;;;;11.80;6.97;;;;;;;5.14;90.45;95886.75;5073546;28;20530;-69
2021/05/02 06:28:45;;;;;;;12.50;6.82;;;;;;;5.10;89.38;95883.03;5070914;28;20083;-69
2021/05/02 06:31:13;;;;;;;9.27;6.50;;;;;;;5.15;88.46;95885.66;5071512;28;20040;-69
2021/05/02 06:33:39;;;;;;;7.95;5.53;;;;;;;4.97;88.33;95888.09;5070826;28;20045;-70
2021/05/02 06:36:06;;;;;;;9.52;6.25;;;;;;;4.81;88.71;95894.81;5071608;28;20469;-71
2021/05/02 06:38:33;;;;;;;10.05;6.50;;;;;;;4.81;89.06;95894.00;5070877;28;20041;-69
2021/05/02 06:41:00;;;;;;;9.75;6.47;;;;;;;4.89;89.41;95904.91;5071627;28;20036;-69
2021/05/02 06:43:25;;;;;;;8.88;6.40;;;;;;;4.88;89.62;95907.91;5070497;28;20051;-69
2021/05/02 06:45:51;;;;;;;10.98;6.90;;;;;;;4.97;89.93;95909.66;5071311;28;20048;-69
2021/05/02 06:48:18;;;;;;;9.45;6.80;;;;;;;4.98;89.90;95903.16;5070571;28;20410;-69
2021/05/02 06:50:45;;;;;;;10.95;6.82;;;;;;;5.00;89.86;95920.97;5073444;28;20507;-68
2021/05/02 06:53:11;;;;;;;10.80;6.55;;;;;;;4.96;89.87;95918.06;5091192;28;20067;-69
2021/05/02 06:55:37;;;;;;;9.93;6.53;;;;;;;4.93;89.79;95927.53;5078142;28;20094;-69
2021/05/02 06:58:03;;;;;;;12.35;7.40;;;;;;;4.99;90.24;95933.66;5071004;28;20052;-69
2021/05/02 07:00:30;;;;;;;12.25;7.03;;;;;;;5.12;90.51;95934.84;5070200;28;20041;-68
2021/05/02 07:02:56;;;;;;;12.20;7.35;;;;;;;5.11;90.25;95939.41;5071478;28;20040;-69
2021/05/02 07:05:23;;;;;;;12.27;8.02;;;;;;;5.11;90.28;95944.00;5069632;28;20052;-69
2021/05/02 07:07:49;;;;;;;15.50;8.38;;;;;;;5.23;90.77;95947.06;5071052;28;20110;-68
2021/05/02 07:10:15;;;;;;;13.80;8.35;;;;;;;5.32;90.76;95950.69;5069990;28;20629;-70
2021/05/02 07:12:42;;;;;;;12.55;8.38;;;;;;;5.31;90.16;95951.78;5070601;28;20048;-69
2021/05/02 07:15:09;;;;;;;15.13;8.55;;;;;;;5.37;90.46;95947.91;5070297;28;20048;-69
2021/05/02 07:17:35;;;;;;;12.32;8.00;;;;;;;5.41;90.27;95954.31;5070130;28;20040;-69
2021/05/02 07:20:01;;;;;;;13.35;8.63;;;;;;;5.50;90.36;95967.97;5070757;28;20048;-71
2021/05/02 07:22:29;;;;;;;12.20;8.23;;;;;;;5.45;89.32;95970.75;5087099;28;20037;-69
2021/05/02 07:24:57;;;;;;;12.70;8.52;;;;;;;5.44;89.25;95972.66;5084579;28;20044;-68
2021/05/02 07:27:23;;;;;;;11.82;7.88;;;;;;;5.44;89.30;95982.66;5069320;28;20040;-69
2021/05/02 07:29:49;;;;;;;13.38;8.73;;;;;;;5.55;89.31;95986.00;5070567;28;20044;-76
2021/05/02 07:32:15;;;;;;;12.52;8.48;;;;;;;5.60;88.58;95988.63;5069548;28;20045;-80
2021/05/02 07:34:41;;;;;;;13.85;8.98;;;;;;;5.55;87.78;95986.00;5070087;28;20402;-74
2021/05/02 07:37:07;;;;;;;13.45;8.77;;;;;;;5.49;88.08;95993.38;5089454;28;20494;-74
2021/05/02 07:39:34;;;;;;;12.10;8.25;;;;;;;5.52;87.98;95991.97;5069316;28;20048;-75
2021/05/02 07:42:00;;;;;;;11.20;7.70;;;;;;;5.56;87.87;95998.41;5087799;28;20052;-74
2021/05/02 07:44:26;;;;;;;13.15;8.43;;;;;;;5.68;87.60;96006.84;5086629;28;20101;-74
2021/05/02 07:46:52;;;;;;;12.98;8.73;;;;;;;5.75;87.38;96009.97;5087979;28;20094;-74
2021/05/02 07:49:18;;;;;;;13.35;8.70;;;;;;;5.88;87.44;96014.63;5086183;28;20122;-73
2021/05/02 07:51:43;;;;;;;12.75;8.30;;;;;;;5.97;87.24;96020.19;5088099;28;20572;-74
2021/05/02 07:54:09;;;;;;;12.38;8.50;;;;;;;5.99;86.79;96024.19;5087211;28;20062;-73
2021/05/02 07:56:36;;;;;;;12.68;8.73;;;;;;;5.95;86.82;96025.06;5067343;28;20755;-73
2021/05/02 07:59:03;;;;;;;12.05;8.43;;;;;;;5.95;86.19;96028.59;5066114;28;20048;-73
2021/05/02 08:01:29;;;;;;;12.52;9.50;;;;;;;6.03;86.27;96037.09;5067548;28;20060;-74
2021/05/02 08:03:54;;;;;;;13.65;9.07;;;;;;;6.04;86.16;96036.00;5070030;28;20048;-74
2021/05/02 08:06:21;;;;;;;13.57;9.55;;;;;;;6.05;86.67;96048.41;5086171;28;20071;-74
2021/05/02 08:08:47;;;;;;;13.80;9.70;;;;;;;6.08;86.96;96047.84;5087466;28;20059;-74
2021/05/02 08:11:13;;;;;;;14.60;10.10;;;;;;;6.08;86.39;96061.34;5086229;28;20048;-73
2021/05/02 08:13:40;;;;;;;13.05;9.20;;;;;;;6.10;86.54;96051.03;5087908;28;20406;-74
2021/05/02 08:16:06;;;;;;;12.95;9.88;;;;;;;6.05;85.70;96054.63;5086166;28;20044;-73
2021/05/02 08:18:32;;;;;;;17.95;11.63;;;;;;;6.00;85.50;96062.81;5087067;28;20091;-74
2021/05/02 08:20:58;;;;;;;16.92;12.05;;;;;;;5.76;85.46;96079.13;5086612;28;20048;-74
2021/05/02 08:23:25;;;;;;;19.08;13.90;;;;;;;5.81;85.79;96070.13;5086616;28;20514;-74
2021/05/02 08:25:51;;;;;;;18.95;13.60;;;;;;;5.78;85.14;96071.50;5072317;28;20049;-74
2021/05/02 08:28:16;;;;;;;18.55;12.88;;;;;;;5.69;85.44;96078.69;5065905;28;20665;-74
2021/05/02 08:30:43;;;;;;;19.48;14.45;;;;;;;5.73;85.94;96090.50;5066749;28;20041;-74
2021/05/02 08:33:09;;;;;;;22.10;14.98;;;;;;;5.74;85.90;96092.09;5066045;28;20048;-74
2021/05/02 08:35:35;;;;;;;23.65;15.50;;;;;;;5.77;85.52;96099.63;5066549;28;20507;-74
2021/05/02 08:38:01;;;;;;;20.52;14.48;;;;;;;5.79;85.56;96105.53;5064832;28;20513;-74
2021/05/02 08:40:27;;;;;;;20.27;13.15;;;;;;;5.83;85.26;96109.28;5067242;28;20049;-74
2021/05/02 08:42:53;;;;;;;20.40;14.52;;;;;;;5.78;85.32;96109.34;5065949;28;20040;-74
2021/05/02 08:45:22;;;;;;;21.35;15.93;;;;;;;5.71;85.50;96108.91;5066712;28;20580;-74
2021/05/02 08:47:49;;;;;;;22.98;15.80;;;;;;;5.67;85.14;96113.28;5068564;28;20062;-74
2021/05/02 08:50:15;;;;;;;21.80;15.68;;;;;;;5.68;85.22;96114.91;5069981;28;20040;-74
2021/05/02 08:52:41;;;;;;;25.13;16.38;;;;;;;5.69;85.00;96117.31;5089335;28;20403;-74
2021/05/02 08:55:09;;;;;;;21.90;16.05;;;;;;;5.75;85.50;96121.56;5081502;28;20048;-74
2021/05/02 08:57:35;;;;;;;21.90;15.75;;;;;;;5.79;85.29;96119.06;5069896;28;20541;-74
2021/05/02 09:00:01;;;;;;;25.08;17.52;;;;;;;5.83;85.84;96128.19;5069138;28;20117;-74
2021/05/02 09:02:29;;;;;;;24.20;16.85;;;;;;;5.79;84.62;96127.16;5070470;28;20433;-74
2021/05/02 09:04:59;;;;;;;23.55;16.35;;;;;;;5.76;84.90;96127.75;5081691;28;20059;-74
2021/05/02 09:07:25;;;;;;;23.08;16.48;;;;;;;5.82;85.39;96131.19;5090312;28;20562;-74
2021/05/02 09:09:52;;;;;;;21.80;15.43;;;;;;;5.78;84.42;96124.75;5089599;28;20777;-74
2021/05/02 09:12:20;;;;;;;21.10;14.40;;;;;;;5.79;84.73;96127.16;5089834;28;20077;-74
2021/05/02 09:14:47;;;;;;;20.75;13.93;;;;;;;5.74;84.56;96136.16;5090075;28;20081;-74
2021/05/02 09:17:15;;;;;;;19.05;14.52;;;;;;;5.75;84.49;96136.97;5089203;28;20052;-75
2021/05/02 09:19:46;;;;;;;21.38;15.38;;;;;;;5.77;85.59;96134.75;5089962;28;20150;-75
2021/05/02 09:22:14;;;;;;;21.58;14.98;;;;;;;5.80;85.48;96141.50;5088770;28;20105;-74
2021/05/02 09:24:41;;;;;;;21.95;15.05;;;;;;;5.85;85.62;96141.44;5085820;28;20517;-75
2021/05/02 09:27:08;;;;;;;23.17;16.45;;;;;;;5.84;85.28;96140.59;5068652;28;20105;-74
2021/05/02 09:29:36;;;;;;;23.98;15.38;;;;;;;5.87;84.14;96145.44;5069992;28;20051;-74
2021/05/02 09:32:04;;;;;;;19.40;14.27;;;;;;;5.88;83.23;96152.44;5068705;28;20052;-74
2021/05/02 09:34:31;;;;;;;19.70;14.25;;;;;;;5.83;82.65;96152.50;5069758;28;20053;-74
2021/05/02 09:37:00;;;;;;;22.48;16.17;;;;;;;5.84;84.17;96153.31;5069302;28;20059;-74
2021/05/02 09:39:53;;;;;;;22.77;16.58;;;;;;;5.89;83.10;96159.44;5069135;28;20040;-75
2021/05/02 09:42:20;;;;;;;21.55;15.70;;;;;;;5.78;83.08;96157.97;5050368;28;20121;-74
2021/05/02 09:44:47;;;;;;;21.40;15.65;;;;;;;5.71;83.02;96163.75;5068696;28;20049;-75
2021/05/02 09:47:22;;;;;;;22.52;15.35;;;;;;;5.74;83.47;96162.34;5069355;28;20384;-74
2021/05/02 09:50:06;;;;;;;22.08;15.98;;;;;;;5.78;83.85;96163.38;5068796;28;20052;-76
2021/05/02 09:52:48;;;;;;;20.05;14.45;;;;;;;5.86;83.84;96165.44;5087040;28;20040;-74
2021/05/02 09:55:25;;;;;;;21.95;15.45;;;;;;;5.94;84.21;96172.91;5080174;28;20102;-75
2021/05/02 09:57:53;;;;;;;19.90;15.00;;;;;;;5.90;82.40;96169.19;5068100;28;20512;-74
2021/05/02 10:00:29;;;;;;;18.90;14.15;;;;;;;5.91;82.04;96170.81;5068788;28;20052;-76
2021/05/02 10:02:56;;;;;;;22.17;16.35;;;;;;;5.98;83.47;96168.53;5068430;28;20052;-74
2021/05/02 10:05:22;;;;;;;22.98;16.63;;;;;;;6.03;83.99;96175.75;5068993;28;20044;-73
2021/05/02 10:07:50;;;;;;;26.42;18.55;;;;;;;6.19;85.08;96179.03;5068604;28;20052;-74
2021/05/02 10:10:16;;;;;;;23.45;17.35;;;;;;;6.32;84.83;96181.00;5068768;28;20041;-74
2021/05/02 10:12:48;;;;;;;19.77;15.18;;;;;;;6.39;83.07;96186.03;5068915;28;20523;-74
2021/05/02 10:15:14;;;;;;;20.85;15.45;;;;;;;6.29;83.41;96192.41;5068329;28;20052;-74
2021/05/02 10:17:40;;;;;;;21.73;16.30;;;;;;;6.37;83.98;96194.44;5068869;28;20785;-74
2021/05/02 10:20:11;;;;;;;21.13;15.73;;;;;;;6.38;83.46;96192.53;5067858;28;20066;-74
2021/05/02 10:22:37;;;;;;;20.58;15.52;;;;;;;6.34;82.96;96203.16;5087972;28;20494;-74
2021/05/02 10:25:04;;;;;;;23.35;16.92;;;;;;;6.46;83.62;96198.06;5080554;28;20051;-74
2021/05/02 10:27:30;;;;;;;20.88;16.45;;;;;;;6.57;83.05;96208.72;5068805;28;20048;-74
2021/05/02 10:29:58;;;;;;;20.70;15.68;;;;;;;6.65;81.29;96206.16;5049860;28;20152;-74
2021/05/02 10:32:33;;;;;;;22.20;16.65;;;;;;;6.72;82.42;96203.88;5068575;28;20049;-73
2021/05/02 10:35:07;;;;;;;26.98;19.50;;;;;;;6.76;83.80;96209.50;5068507;28;20074;-73
2021/05/02 10:37:36;;;;;;;18.92;15.32;;;;;;;6.85;81.19;96204.22;5068146;28;20098;-73
2021/05/02 10:40:06;;;;;;;22.17;16.15;;;;;;;6.90;81.55;96210.34;5068260;28;20507;-74
2021/05/02 10:42:42;;;;;;;25.20;18.20;;;;;;;7.01;82.52;96219.09;5067817;28;20068;-74
2021/05/02 10:45:41;;;;;;;27.88;18.98;;;;;;;7.22;83.29;96219.50;5068756;28;20059;-74
2021/05/02 10:48:08;;;;;;;21.52;16.92;;;;;;;7.31;82.31;96215.81;5067641;28;20045;-74
2021/05/02 10:50:36;;;;;;;20.13;15.38;;;;;;;7.49;81.72;96216.00;5069707;28;20055;-74
2021/05/02 10:53:03;;;;;;;21.88;16.33;;;;;;;7.54;79.78;96219.41;5070145;28;20044;-74
2021/05/02 10:55:46;;;;;;;17.77;13.05;;;;;;;7.47;77.58;96224.44;5076423;28;20430;-74
2021/05/02 10:58:24;;;;;;;13.98;10.68;;;;;;;7.26;78.72;96224.03;5068323;28;20049;-74
2021/05/02 11:00:55;;;;;;;19.92;14.95;;;;;;;7.12;80.02;96222.41;5049403;28;20052;-77
2021/05/02 11:03:52;;;;;;;20.15;15.35;;;;;;;7.14;80.63;96231.03;5067826;28;20522;-74
2021/05/02 11:06:52;;;;;;;23.02;17.17;;;;;;;7.22;82.28;96238.47;5067611;28;20045;-74
2021/05/02 11:09:20;;;;;;;25.95;18.88;;;;;;;7.45;82.45;96229.34;5066582;28;20055;-74
2021/05/02 11:11:49;;;;;;;27.20;19.88;;;;;;;7.62;81.76;96230.66;5068626;28;20049;-74
2021/05/02 11:14:32;;;;;;;21.35;15.70;;;;;;;7.69;78.37;96236.47;5066821;28;20045;-74
2021/05/02 11:17:35;;;;;;;24.00;17.42;;;;;;;7.89;80.48;96240.69;5067841;28;20078;-74
2021/05/02 11:20:02;;;;;;;21.67;15.88;;;;;;;7.98;75.69;96238.84;5067959;28;20443;-75
2021/05/02 11:22:29;;;;;;;25.70;18.80;;;;;;;8.07;80.30;96237.81;5084217;28;20542;-74
2021/05/02 11:25:11;;;;;;;22.92;17.30;;;;;;;8.16;78.62;96243.34;5081667;28;20121;-74
2021/05/02 11:28:05;;;;;;;23.55;17.20;;;;;;;8.06;76.88;96247.06;5067071;28;20056;-75
2021/05/02 11:30:31;;;;;;;22.25;17.35;;;;;;;7.98;76.76;96255.91;5067379;28;20044;-74
2021/05/02 11:32:59;;;;;;;25.08;19.33;;;;;;;8.03;78.83;96249.59;5067658;28;20396;-74
2021/05/02 11:35:52;;;;;;;24.83;18.05;;;;;;;7.94;77.26;96251.44;5066583;28;20048;-75
2021/05/02 11:38:34;;;;;;;22.38;15.85;;;;;;;7.81;75.96;96250.31;5067561;28;20052;-74
2021/05/02 11:41:03;;;;;;;23.23;17.50;;;;;;;7.57;77.19;96251.34;5066947;28;20056;-74